sensor_id;sensor_type;location;lat;lon;timestamp;pressure;altitude;pressure_sealevel;temperature;humidity
2685;BME280;1352;48.446;9.156;2022-10-22T00:01:05;95160.88;;;13.87;100.00
2685;BME280;1352;48.446;9.156;2022-10-22T00:03:32;95151.38;;;13.86;100.00
2685;BME280;1352;48.446;9.156;2022-10-22T00:05:59;95151.06;;;13.97;100.00
2685;BME280;1352;48.446;9.156;2022-10-22T00:08:27;95156.44;;;13.88;100.00
2685;BME280;1352;48.446;9.156;2022-10-22T00:10:55;95154.31;;;13.83;100.00
2685;BME280;1352;48.446;9.156;2022-10-22T00:13:23;95160.84;;;13.79;100.00
2685;BME280;1352;48.446;9.156;2022-10-22T00:15:50;95173.50;;;13.84;100.00
2685;BME280;1352;48.446;9.156;2022-10-22T00:18:17;95161.88;;;13.86;100.00
2685;BME280;1352;48.446;9.156;2022-10-22T00:20:44;95162.50;;;13.80;100.00
2685;BME280;1352;48.446;9.156;2022-10-22T00:23:11;95155.31;;;13.82;100.00
2685;BME280;1352;48.446;9.156;2022-10-22T00:25:38;95158.22;;;13.79;100.00
2685;BME280;1352;48.446;9.156;2022-10-22T00:28:07;95153.66;;;13.89;100.00
2685;BME280;1352;48.446;9.156;2022-10-22T00:30:36;95141.09;;;14.01;100.00
2685;BME280;1352;48.446;9.156;2022-10-22T00:33:03;95138.63;;;13.99;100.00
2685;BME280;1352;48.446;9.156;2022-10-22T00:35:30;95135.16;;;13.99;100.00
2685;BME280;1352;48.446;9.156;2022-10-22T00:37:58;95117.78;;;13.98;100.00
2685;BME280;1352;48.446;9.156;2022-10-22T00:40:25;95123.53;;;14.01;100.00
2685;BME280;1352;48.446;9.156;2022-10-22T00:42:52;95110.94;;;14.05;100.00
2685;BME280;1352;48.446;9.156;2022-10-22T00:45:22;95099.94;;;14.01;100.00
2685;BME280;1352;48.446;9.156;2022-10-22T00:47:54;95097.00;;;14.12;100.00
2685;BME280;1352;48.446;9.156;2022-10-22T00:50:26;95105.53;;;14.14;100.00
2685;BME280;1352;48.446;9.156;2022-10-22T00:52:55;95104.88;;;14.21;100.00
2685;BME280;1352;48.446;9.156;2022-10-22T00:55:24;95112.44;;;14.24;100.00
2685;BME280;1352;48.446;9.156;2022-10-22T00:57:53;95127.50;;;14.22;100.00
2685;BME280;1352;48.446;9.156;2022-10-22T01:00:23;95145.03;;;14.05;100.00
2685;BME280;1352;48.446;9.156;2022-10-22T01:02:51;95147.16;;;14.01;100.00
2685;BME280;1352;48.446;9.156;2022-10-22T01:05:19;95145.72;;;14.15;100.00
2685;BME280;1352;48.446;9.156;2022-10-22T01:07:48;95144.72;;;14.16;100.00
2685;BME280;1352;48.446;9.156;2022-10-22T01:10:25;95162.91;;;14.01;100.00
2685;BME280;1352;48.446;9.156;2022-10-22T01:12:58;95157.81;;;14.00;100.00
2685;BME280;1352;48.446;9.156;2022-10-22T01:15:33;95161.75;;;13.96;100.00
2685;BME280;1352;48.446;9.156;2022-10-22T01:18:06;95163.34;;;13.97;100.00
2685;BME280;1352;48.446;9.156;2022-10-22T01:20:54;95163.19;;;13.90;100.00
2685;BME280;1352;48.446;9.156;2022-10-22T01:23:38;95177.63;;;13.86;100.00
2685;BME280;1352;48.446;9.156;2022-10-22T01:26:18;95178.59;;;13.85;100.00
2685;BME280;1352;48.446;9.156;2022-10-22T01:28:57;95165.97;;;13.89;100.00
2685;BME280;1352;48.446;9.156;2022-10-22T01:31:29;95178.25;;;13.88;100.00
2685;BME280;1352;48.446;9.156;2022-10-22T01:33:59;95178.22;;;13.80;100.00
2685;BME280;1352;48.446;9.156;2022-10-22T01:36:28;95170.19;;;13.73;100.00
2685;BME280;1352;48.446;9.156;2022-10-22T01:38:57;95162.50;;;13.80;100.00
2685;BME280;1352;48.446;9.156;2022-10-22T01:41:26;95163.31;;;13.81;100.00
2685;BME280;1352;48.446;9.156;2022-10-22T01:43:55;95150.69;;;13.76;100.00
2685;BME280;1352;48.446;9.156;2022-10-22T01:46:24;95142.00;;;13.75;100.00
2685;BME280;1352;48.446;9.156;2022-10-22T01:49:03;95137.22;;;13.71;100.00
2685;BME280;1352;48.446;9.156;2022-10-22T01:51:55;95128.06;;;13.67;100.00
2685;BME280;1352;48.446;9.156;2022-10-22T01:54:30;95116.41;;;13.69;100.00
2685;BME280;1352;48.446;9.156;2022-10-22T01:57:07;95107.41;;;13.64;100.00
2685;BME280;1352;48.446;9.156;2022-10-22T01:59:47;95103.28;;;13.61;100.00
2685;BME280;1352;48.446;9.156;2022-10-22T02:02:30;95114.09;;;13.58;100.00
2685;BME280;1352;48.446;9.156;2022-10-22T02:05:03;95101.63;;;13.60;100.00
2685;BME280;1352;48.446;9.156;2022-10-22T02:07:36;95087.09;;;13.66;100.00
2685;BME280;1352;48.446;9.156;2022-10-22T02:10:06;95078.56;;;13.64;100.00
2685;BME280;1352;48.446;9.156;2022-10-22T02:12:35;95076.25;;;13.61;100.00
2685;BME280;1352;48.446;9.156;2022-10-22T02:15:07;95074.13;;;13.56;100.00
2685;BME280;1352;48.446;9.156;2022-10-22T02:17:37;95077.84;;;13.46;100.00
2685;BME280;1352;48.446;9.156;2022-10-22T02:20:09;95078.84;;;13.45;100.00
2685;BME280;1352;48.446;9.156;2022-10-22T02:22:38;95083.56;;;13.41;100.00
2685;BME280;1352;48.446;9.156;2022-10-22T02:25:07;95079.34;;;13.48;100.00
2685;BME280;1352;48.446;9.156;2022-10-22T02:27:38;95087.84;;;13.50;100.00
2685;BME280;1352;48.446;9.156;2022-10-22T02:30:10;95115.25;;;13.56;100.00
2685;BME280;1352;48.446;9.156;2022-10-22T02:32:43;95128.38;;;13.64;100.00
2685;BME280;1352;48.446;9.156;2022-10-22T02:35:16;95142.59;;;13.61;100.00
2685;BME280;1352;48.446;9.156;2022-10-22T02:37:45;95151.66;;;13.67;100.00
2685;BME280;1352;48.446;9.156;2022-10-22T02:40:12;95159.50;;;13.59;100.00
2685;BME280;1352;48.446;9.156;2022-10-22T02:42:41;95159.16;;;13.62;100.00
2685;BME280;1352;48.446;9.156;2022-10-22T02:45:10;95161.56;;;13.47;100.00
2685;BME280;1352;48.446;9.156;2022-10-22T02:47:37;95170.44;;;13.54;100.00
2685;BME280;1352;48.446;9.156;2022-10-22T02:50:05;95169.28;;;13.49;100.00
2685;BME280;1352;48.446;9.156;2022-10-22T02:52:32;95177.44;;;13.46;100.00
2685;BME280;1352;48.446;9.156;2022-10-22T02:54:59;95185.16;;;13.47;100.00
2685;BME280;1352;48.446;9.156;2022-10-22T02:57:26;95183.84;;;13.51;100.00
2685;BME280;1352;48.446;9.156;2022-10-22T02:59:53;95186.84;;;13.56;100.00
2685;BME280;1352;48.446;9.156;2022-10-22T03:02:21;95182.56;;;13.55;100.00
2685;BME280;1352;48.446;9.156;2022-10-22T03:04:48;95168.63;;;13.55;100.00
2685;BME280;1352;48.446;9.156;2022-10-22T03:07:15;95173.88;;;13.55;100.00
2685;BME280;1352;48.446;9.156;2022-10-22T03:09:42;95183.56;;;13.62;100.00
2685;BME280;1352;48.446;9.156;2022-10-22T03:12:09;95184.25;;;13.64;100.00
2685;BME280;1352;48.446;9.156;2022-10-22T03:14:36;95186.56;;;13.67;100.00
2685;BME280;1352;48.446;9.156;2022-10-22T03:17:03;95180.16;;;13.70;100.00
2685;BME280;1352;48.446;9.156;2022-10-22T03:19:32;95181.66;;;13.72;100.00
2685;BME280;1352;48.446;9.156;2022-10-22T03:22:01;95173.97;;;13.79;100.00
2685;BME280;1352;48.446;9.156;2022-10-22T03:24:33;95151.00;;;13.73;100.00
2685;BME280;1352;48.446;9.156;2022-10-22T03:27:01;95147.75;;;13.79;100.00
2685;BME280;1352;48.446;9.156;2022-10-22T03:29:30;95150.22;;;13.81;100.00
2685;BME280;1352;48.446;9.156;2022-10-22T03:31:58;95122.84;;;13.83;100.00
2685;BME280;1352;48.446;9.156;2022-10-22T03:34:25;95123.31;;;13.78;100.00
2685;BME280;1352;48.446;9.156;2022-10-22T03:36:56;95121.72;;;13.86;100.00
2685;BME280;1352;48.446;9.156;2022-10-22T03:39:26;95103.69;;;13.91;100.00
2685;BME280;1352;48.446;9.156;2022-10-22T03:41:55;95095.97;;;13.97;100.00
2685;BME280;1352;48.446;9.156;2022-10-22T03:44:22;95084.72;;;14.05;100.00
2685;BME280;1352;48.446;9.156;2022-10-22T03:46:50;95085.84;;;14.02;100.00
2685;BME280;1352;48.446;9.156;2022-10-22T03:49:17;95095.00;;;13.90;100.00
2685;BME280;1352;48.446;9.156;2022-10-22T03:51:44;95104.88;;;14.04;100.00
2685;BME280;1352;48.446;9.156;2022-10-22T03:54:12;95099.28;;;13.99;100.00
2685;BME280;1352;48.446;9.156;2022-10-22T03:56:39;95104.06;;;14.04;100.00
2685;BME280;1352;48.446;9.156;2022-10-22T03:59:06;95104.38;;;14.09;100.00
2685;BME280;1352;48.446;9.156;2022-10-22T04:01:33;95118.16;;;14.11;100.00
2685;BME280;1352;48.446;9.156;2022-10-22T04:04:00;95117.03;;;14.22;100.00
2685;BME280;1352;48.446;9.156;2022-10-22T04:06:28;95114.06;;;14.25;100.00
2685;BME280;1352;48.446;9.156;2022-10-22T04:08:55;95114.41;;;14.30;100.00
2685;BME280;1352;48.446;9.156;2022-10-22T04:11:24;95115.53;;;14.35;100.00
2685;BME280;1352;48.446;9.156;2022-10-22T04:13:51;95113.13;;;14.42;100.00
2685;BME280;1352;48.446;9.156;2022-10-22T04:16:20;95109.69;;;14.41;100.00
2685;BME280;1352;48.446;9.156;2022-10-22T04:18:48;95109.16;;;14.46;100.00
2685;BME280;1352;48.446;9.156;2022-10-22T04:21:17;95121.31;;;14.39;100.00
2685;BME280;1352;48.446;9.156;2022-10-22T04:23:45;95122.28;;;14.46;100.00
2685;BME280;1352;48.446;9.156;2022-10-22T04:26:13;95113.28;;;14.48;100.00
2685;BME280;1352;48.446;9.156;2022-10-22T04:28:43;95121.63;;;14.44;100.00
2685;BME280;1352;48.446;9.156;2022-10-22T04:31:12;95125.09;;;14.44;100.00
2685;BME280;1352;48.446;9.156;2022-10-22T04:33:39;95126.56;;;14.39;100.00
2685;BME280;1352;48.446;9.156;2022-10-22T04:36:09;95130.84;;;14.40;100.00
2685;BME280;1352;48.446;9.156;2022-10-22T04:38:36;95125.06;;;14.28;100.00
2685;BME280;1352;48.446;9.156;2022-10-22T04:41:09;95125.22;;;14.19;100.00
2685;BME280;1352;48.446;9.156;2022-10-22T04:43:39;95117.19;;;14.28;100.00
2685;BME280;1352;48.446;9.156;2022-10-22T04:46:08;95113.56;;;14.21;100.00
2685;BME280;1352;48.446;9.156;2022-10-22T04:48:36;95123.25;;;14.29;100.00
2685;BME280;1352;48.446;9.156;2022-10-22T04:51:04;95126.69;;;14.29;100.00
2685;BME280;1352;48.446;9.156;2022-10-22T04:53:32;95137.19;;;14.37;100.00
2685;BME280;1352;48.446;9.156;2022-10-22T04:56:08;95132.09;;;14.28;100.00
2685;BME280;1352;48.446;9.156;2022-10-22T04:58:35;95139.97;;;14.28;100.00
2685;BME280;1352;48.446;9.156;2022-10-22T05:01:10;95152.94;;;14.21;100.00
2685;BME280;1352;48.446;9.156;2022-10-22T05:03:38;95147.69;;;14.21;100.00
2685;BME280;1352;48.446;9.156;2022-10-22T05:06:05;95147.19;;;14.18;100.00
2685;BME280;1352;48.446;9.156;2022-10-22T05:08:32;95150.78;;;14.16;100.00
2685;BME280;1352;48.446;9.156;2022-10-22T05:10:59;95148.16;;;14.08;100.00
2685;BME280;1352;48.446;9.156;2022-10-22T05:13:27;95162.44;;;14.06;100.00
2685;BME280;1352;48.446;9.156;2022-10-22T05:15:54;95167.47;;;14.07;100.00
2685;BME280;1352;48.446;9.156;2022-10-22T05:18:22;95176.19;;;14.16;100.00
2685;BME280;1352;48.446;9.156;2022-10-22T05:20:49;95180.66;;;14.24;100.00
2685;BME280;1352;48.446;9.156;2022-10-22T05:23:16;95186.22;;;14.21;100.00
2685;BME280;1352;48.446;9.156;2022-10-22T05:25:43;95187.34;;;14.10;100.00
2685;BME280;1352;48.446;9.156;2022-10-22T05:28:10;95194.06;;;14.04;100.00
2685;BME280;1352;48.446;9.156;2022-10-22T05:30:37;95186.03;;;14.06;100.00
2685;BME280;1352;48.446;9.156;2022-10-22T05:33:04;95196.31;;;13.99;100.00
2685;BME280;1352;48.446;9.156;2022-10-22T05:35:33;95202.28;;;14.18;100.00
2685;BME280;1352;48.446;9.156;2022-10-22T05:38:00;95205.88;;;14.16;100.00
2685;BME280;1352;48.446;9.156;2022-10-22T05:40:27;95211.31;;;14.15;100.00
2685;BME280;1352;48.446;9.156;2022-10-22T05:42:54;95211.94;;;14.17;100.00
2685;BME280;1352;48.446;9.156;2022-10-22T05:45:21;95206.84;;;14.15;100.00
2685;BME280;1352;48.446;9.156;2022-10-22T05:47:49;95195.56;;;14.15;100.00
2685;BME280;1352;48.446;9.156;2022-10-22T05:50:16;95201.94;;;14.04;100.00
2685;BME280;1352;48.446;9.156;2022-10-22T05:52:44;95201.09;;;14.04;100.00
2685;BME280;1352;48.446;9.156;2022-10-22T05:55:12;95201.44;;;14.09;100.00
2685;BME280;1352;48.446;9.156;2022-10-22T05:57:39;95199.66;;;14.18;100.00
2685;BME280;1352;48.446;9.156;2022-10-22T06:00:08;95202.94;;;14.20;100.00
2685;BME280;1352;48.446;9.156;2022-10-22T06:02:35;95201.25;;;14.02;100.00
2685;BME280;1352;48.446;9.156;2022-10-22T06:05:03;95198.78;;;14.01;100.00
2685;BME280;1352;48.446;9.156;2022-10-22T06:07:30;95204.72;;;14.03;100.00
2685;BME280;1352;48.446;9.156;2022-10-22T06:09:59;95204.84;;;13.93;100.00
2685;BME280;1352;48.446;9.156;2022-10-22T06:12:26;95221.19;;;13.87;100.00
2685;BME280;1352;48.446;9.156;2022-10-22T06:14:53;95217.25;;;13.83;100.00
2685;BME280;1352;48.446;9.156;2022-10-22T06:17:20;95219.56;;;13.86;100.00
2685;BME280;1352;48.446;9.156;2022-10-22T06:19:47;95227.31;;;13.96;100.00
2685;BME280;1352;48.446;9.156;2022-10-22T06:22:14;95225.34;;;13.98;100.00
2685;BME280;1352;48.446;9.156;2022-10-22T06:24:41;95228.50;;;14.09;100.00
2685;BME280;1352;48.446;9.156;2022-10-22T06:27:10;95232.13;;;14.16;100.00
2685;BME280;1352;48.446;9.156;2022-10-22T06:29:37;95231.97;;;14.18;100.00
2685;BME280;1352;48.446;9.156;2022-10-22T06:32:04;95240.03;;;14.25;100.00
2685;BME280;1352;48.446;9.156;2022-10-22T06:34:31;95245.94;;;14.35;100.00
2685;BME280;1352;48.446;9.156;2022-10-22T06:36:58;95251.56;;;14.40;100.00
2685;BME280;1352;48.446;9.156;2022-10-22T06:39:25;95264.88;;;14.46;100.00
2685;BME280;1352;48.446;9.156;2022-10-22T06:41:52;95270.31;;;14.53;100.00
2685;BME280;1352;48.446;9.156;2022-10-22T06:44:21;95269.81;;;14.49;100.00
2685;BME280;1352;48.446;9.156;2022-10-22T06:46:48;95263.72;;;14.41;100.00
2685;BME280;1352;48.446;9.156;2022-10-22T06:49:17;95276.03;;;14.40;100.00
2685;BME280;1352;48.446;9.156;2022-10-22T06:51:47;95274.22;;;14.41;100.00
2685;BME280;1352;48.446;9.156;2022-10-22T06:54:15;95275.97;;;14.32;100.00
2685;BME280;1352;48.446;9.156;2022-10-22T06:56:42;95292.09;;;14.45;100.00
2685;BME280;1352;48.446;9.156;2022-10-22T06:59:09;95294.25;;;14.42;100.00
2685;BME280;1352;48.446;9.156;2022-10-22T07:01:38;95295.81;;;14.35;100.00
2685;BME280;1352;48.446;9.156;2022-10-22T07:04:05;95305.22;;;14.45;100.00
2685;BME280;1352;48.446;9.156;2022-10-22T07:06:33;95307.69;;;14.39;100.00
2685;BME280;1352;48.446;9.156;2022-10-22T07:09:00;95311.50;;;14.52;100.00
2685;BME280;1352;48.446;9.156;2022-10-22T07:11:29;95316.78;;;14.61;100.00
2685;BME280;1352;48.446;9.156;2022-10-22T07:13:59;95316.28;;;14.65;100.00
2685;BME280;1352;48.446;9.156;2022-10-22T07:16:26;95320.56;;;14.74;100.00
2685;BME280;1352;48.446;9.156;2022-10-22T07:18:55;95317.47;;;14.79;100.00
2685;BME280;1352;48.446;9.156;2022-10-22T07:21:22;95318.63;;;14.84;100.00
2685;BME280;1352;48.446;9.156;2022-10-22T07:23:50;95314.84;;;14.79;100.00
2685;BME280;1352;48.446;9.156;2022-10-22T07:26:18;95313.88;;;14.80;100.00
2685;BME280;1352;48.446;9.156;2022-10-22T07:28:46;95314.53;;;14.90;100.00
2685;BME280;1352;48.446;9.156;2022-10-22T07:31:14;95320.13;;;14.95;100.00
2685;BME280;1352;48.446;9.156;2022-10-22T07:33:42;95322.09;;;15.01;100.00
2685;BME280;1352;48.446;9.156;2022-10-22T07:36:12;95330.16;;;15.08;100.00
2685;BME280;1352;48.446;9.156;2022-10-22T07:38:42;95329.50;;;15.22;100.00
2685;BME280;1352;48.446;9.156;2022-10-22T07:41:09;95331.81;;;15.25;100.00
2685;BME280;1352;48.446;9.156;2022-10-22T07:43:37;95337.88;;;15.34;100.00
2685;BME280;1352;48.446;9.156;2022-10-22T07:46:04;95342.66;;;15.46;100.00
2685;BME280;1352;48.446;9.156;2022-10-22T07:48:33;95337.25;;;15.56;100.00
2685;BME280;1352;48.446;9.156;2022-10-22T07:51:01;95344.78;;;15.67;100.00
2685;BME280;1352;48.446;9.156;2022-10-22T07:53:31;95347.59;;;15.74;100.00
2685;BME280;1352;48.446;9.156;2022-10-22T07:55:58;95343.94;;;15.91;100.00
2685;BME280;1352;48.446;9.156;2022-10-22T07:58:26;95352.47;;;16.01;100.00
2685;BME280;1352;48.446;9.156;2022-10-22T08:00:55;95356.56;;;16.12;100.00
2685;BME280;1352;48.446;9.156;2022-10-22T08:03:23;95352.75;;;16.22;100.00
2685;BME280;1352;48.446;9.156;2022-10-22T08:05:51;95357.19;;;16.22;100.00
2685;BME280;1352;48.446;9.156;2022-10-22T08:08:19;95353.16;;;16.42;100.00
2685;BME280;1352;48.446;9.156;2022-10-22T08:10:51;95357.28;;;16.45;100.00
2685;BME280;1352;48.446;9.156;2022-10-22T08:13:21;95350.28;;;16.21;100.00
2685;BME280;1352;48.446;9.156;2022-10-22T08:15:49;95356.34;;;16.29;100.00
2685;BME280;1352;48.446;9.156;2022-10-22T08:18:16;95360.31;;;16.17;100.00
2685;BME280;1352;48.446;9.156;2022-10-22T08:20:44;95359.72;;;15.91;100.00
2685;BME280;1352;48.446;9.156;2022-10-22T08:23:11;95358.06;;;15.98;100.00
2685;BME280;1352;48.446;9.156;2022-10-22T08:25:39;95358.56;;;16.02;100.00
2685;BME280;1352;48.446;9.156;2022-10-22T08:28:08;95364.31;;;16.13;100.00
2685;BME280;1352;48.446;9.156;2022-10-22T08:30:36;95357.69;;;16.17;100.00
2685;BME280;1352;48.446;9.156;2022-10-22T08:33:05;95362.75;;;16.35;100.00
2685;BME280;1352;48.446;9.156;2022-10-22T08:35:32;95362.69;;;16.51;100.00
2685;BME280;1352;48.446;9.156;2022-10-22T08:37:59;95366.78;;;16.54;100.00
2685;BME280;1352;48.446;9.156;2022-10-22T08:40:29;95365.28;;;16.67;100.00
2685;BME280;1352;48.446;9.156;2022-10-22T08:43:21;95370.19;;;16.70;100.00
2685;BME280;1352;48.446;9.156;2022-10-22T08:45:59;95374.75;;;16.85;100.00
2685;BME280;1352;48.446;9.156;2022-10-22T08:48:40;95378.69;;;16.89;100.00
2685;BME280;1352;48.446;9.156;2022-10-22T08:51:12;95379.47;;;16.89;100.00
2685;BME280;1352;48.446;9.156;2022-10-22T08:53:48;95377.81;;;16.96;100.00
2685;BME280;1352;48.446;9.156;2022-10-22T08:56:21;95371.34;;;17.07;100.00
2685;BME280;1352;48.446;9.156;2022-10-22T08:58:54;95372.78;;;17.09;100.00
2685;BME280;1352;48.446;9.156;2022-10-22T09:01:30;95376.78;;;17.28;100.00
2685;BME280;1352;48.446;9.156;2022-10-22T09:04:03;95380.00;;;17.38;100.00
2685;BME280;1352;48.446;9.156;2022-10-22T09:06:36;95389.22;;;17.42;100.00
2685;BME280;1352;48.446;9.156;2022-10-22T09:09:08;95384.28;;;17.39;100.00
2685;BME280;1352;48.446;9.156;2022-10-22T09:11:39;95387.16;;;17.53;100.00
2685;BME280;1352;48.446;9.156;2022-10-22T09:14:11;95388.59;;;17.63;100.00
2685;BME280;1352;48.446;9.156;2022-10-22T09:16:51;95392.69;;;17.66;100.00
2685;BME280;1352;48.446;9.156;2022-10-22T09:19:27;95392.53;;;17.67;100.00
2685;BME280;1352;48.446;9.156;2022-10-22T09:22:14;95390.34;;;17.71;100.00
2685;BME280;1352;48.446;9.156;2022-10-22T09:24:45;95393.34;;;17.68;100.00
2685;BME280;1352;48.446;9.156;2022-10-22T09:27:15;95396.72;;;17.76;100.00
2685;BME280;1352;48.446;9.156;2022-10-22T09:29:46;95405.47;;;17.77;100.00
2685;BME280;1352;48.446;9.156;2022-10-22T09:32:13;95406.13;;;17.79;100.00
2685;BME280;1352;48.446;9.156;2022-10-22T09:34:42;95407.59;;;17.81;100.00
2685;BME280;1352;48.446;9.156;2022-10-22T09:37:10;95408.84;;;17.85;100.00
2685;BME280;1352;48.446;9.156;2022-10-22T09:39:39;95406.63;;;17.97;100.00
2685;BME280;1352;48.446;9.156;2022-10-22T09:42:13;95412.19;;;18.02;98.75
2685;BME280;1352;48.446;9.156;2022-10-22T09:44:51;95417.28;;;18.04;99.34
2685;BME280;1352;48.446;9.156;2022-10-22T09:47:32;95422.63;;;17.96;96.20
2685;BME280;1352;48.446;9.156;2022-10-22T09:50:27;95415.53;;;17.96;100.00
2685;BME280;1352;48.446;9.156;2022-10-22T09:52:59;95426.66;;;18.06;100.00
2685;BME280;1352;48.446;9.156;2022-10-22T09:55:26;95428.31;;;18.07;100.00
2685;BME280;1352;48.446;9.156;2022-10-22T09:57:55;95440.59;;;18.00;100.00
2685;BME280;1352;48.446;9.156;2022-10-22T10:00:25;95439.13;;;17.98;99.61
2685;BME280;1352;48.446;9.156;2022-10-22T10:02:54;95441.25;;;18.02;100.00
2685;BME280;1352;48.446;9.156;2022-10-22T10:05:28;95442.00;;;18.11;100.00
2685;BME280;1352;48.446;9.156;2022-10-22T10:07:56;95441.25;;;18.17;100.00
2685;BME280;1352;48.446;9.156;2022-10-22T10:10:36;95447.78;;;18.06;100.00
2685;BME280;1352;48.446;9.156;2022-10-22T10:13:17;95454.44;;;18.02;97.70
2685;BME280;1352;48.446;9.156;2022-10-22T10:15:55;95452.50;;;17.96;100.00
2685;BME280;1352;48.446;9.156;2022-10-22T10:18:33;95459.44;;;18.12;99.91
2685;BME280;1352;48.446;9.156;2022-10-22T10:21:09;95461.47;;;18.10;100.00
2685;BME280;1352;48.446;9.156;2022-10-22T10:23:47;95454.53;;;18.09;100.00
2685;BME280;1352;48.446;9.156;2022-10-22T10:26:24;95457.03;;;18.25;100.00
2685;BME280;1352;48.446;9.156;2022-10-22T10:29:09;95463.78;;;18.28;96.38
2685;BME280;1352;48.446;9.156;2022-10-22T10:31:51;95458.91;;;18.39;100.00
2685;BME280;1352;48.446;9.156;2022-10-22T10:34:29;95463.31;;;18.62;97.42
2685;BME280;1352;48.446;9.156;2022-10-22T10:37:13;95458.91;;;18.69;97.83
2685;BME280;1352;48.446;9.156;2022-10-22T10:39:58;95465.41;;;18.81;98.52
2685;BME280;1352;48.446;9.156;2022-10-22T10:42:34;95477.34;;;18.91;96.58
2685;BME280;1352;48.446;9.156;2022-10-22T10:45:14;95461.56;;;18.98;97.18
2685;BME280;1352;48.446;9.156;2022-10-22T10:48:00;95472.97;;;18.99;90.80
2685;BME280;1352;48.446;9.156;2022-10-22T10:50:40;95470.84;;;19.09;95.33
2685;BME280;1352;48.446;9.156;2022-10-22T10:53:18;95472.78;;;19.15;92.56
2685;BME280;1352;48.446;9.156;2022-10-22T10:55:56;95469.56;;;19.34;92.19
2685;BME280;1352;48.446;9.156;2022-10-22T10:58:33;95470.00;;;19.38;90.38
2685;BME280;1352;48.446;9.156;2022-10-22T11:01:18;95472.81;;;19.51;95.54
2685;BME280;1352;48.446;9.156;2022-10-22T11:04:04;95476.03;;;19.31;88.82
2685;BME280;1352;48.446;9.156;2022-10-22T11:06:34;95471.84;;;19.22;89.65
2685;BME280;1352;48.446;9.156;2022-10-22T11:09:06;95474.97;;;19.11;94.13
2685;BME280;1352;48.446;9.156;2022-10-22T11:11:39;95464.94;;;18.92;88.50
2685;BME280;1352;48.446;9.156;2022-10-22T11:14:14;95467.31;;;18.57;89.75
2685;BME280;1352;48.446;9.156;2022-10-22T11:16:48;95464.19;;;18.39;95.44
2685;BME280;1352;48.446;9.156;2022-10-22T11:19:22;95463.88;;;18.34;89.56
2685;BME280;1352;48.446;9.156;2022-10-22T11:21:55;95467.91;;;18.45;94.55
2685;BME280;1352;48.446;9.156;2022-10-22T11:24:28;95464.34;;;18.38;87.12
2685;BME280;1352;48.446;9.156;2022-10-22T11:27:03;95464.22;;;18.31;83.75
2685;BME280;1352;48.446;9.156;2022-10-22T11:29:34;95466.94;;;18.23;87.69
2685;BME280;1352;48.446;9.156;2022-10-22T11:32:05;95466.34;;;18.21;91.71
2685;BME280;1352;48.446;9.156;2022-10-22T11:34:39;95467.81;;;18.38;92.40
2685;BME280;1352;48.446;9.156;2022-10-22T11:37:09;95469.28;;;18.55;96.65
2685;BME280;1352;48.446;9.156;2022-10-22T11:39:41;95470.13;;;18.71;94.04
2685;BME280;1352;48.446;9.156;2022-10-22T11:42:11;95461.47;;;18.91;89.96
2685;BME280;1352;48.446;9.156;2022-10-22T11:44:47;95456.00;;;18.93;88.04
2685;BME280;1352;48.446;9.156;2022-10-22T11:47:22;95460.84;;;19.04;89.11
2685;BME280;1352;48.446;9.156;2022-10-22T11:50:14;95462.00;;;19.16;87.32
2685;BME280;1352;48.446;9.156;2022-10-22T11:52:52;95466.81;;;19.27;89.36
2685;BME280;1352;48.446;9.156;2022-10-22T11:55:32;95458.97;;;19.34;84.80
2685;BME280;1352;48.446;9.156;2022-10-22T11:58:05;95460.78;;;19.48;85.35
2685;BME280;1352;48.446;9.156;2022-10-22T12:00:49;95454.94;;;19.53;82.53
2685;BME280;1352;48.446;9.156;2022-10-22T12:03:18;95456.69;;;19.67;89.71
2685;BME280;1352;48.446;9.156;2022-10-22T12:05:45;95452.97;;;19.83;84.36
2685;BME280;1352;48.446;9.156;2022-10-22T12:08:19;95447.81;;;19.96;80.61
2685;BME280;1352;48.446;9.156;2022-10-22T12:10:53;95449.84;;;19.94;75.91
2685;BME280;1352;48.446;9.156;2022-10-22T12:13:23;95451.53;;;20.01;79.39
2685;BME280;1352;48.446;9.156;2022-10-22T12:15:56;95448.81;;;19.95;83.20
2685;BME280;1352;48.446;9.156;2022-10-22T12:18:31;95443.78;;;20.00;80.70
2685;BME280;1352;48.446;9.156;2022-10-22T12:20:59;95441.19;;;20.06;84.92
2685;BME280;1352;48.446;9.156;2022-10-22T12:23:30;95448.38;;;20.13;80.16
2685;BME280;1352;48.446;9.156;2022-10-22T12:25:57;95445.66;;;20.06;79.11
2685;BME280;1352;48.446;9.156;2022-10-22T12:28:25;95441.88;;;20.15;76.49
2685;BME280;1352;48.446;9.156;2022-10-22T12:30:54;95435.88;;;20.28;77.38
2685;BME280;1352;48.446;9.156;2022-10-22T12:33:25;95434.41;;;20.25;74.60
2685;BME280;1352;48.446;9.156;2022-10-22T12:35:54;95432.91;;;20.16;76.33
2685;BME280;1352;48.446;9.156;2022-10-22T12:38:23;95435.75;;;20.15;72.34
2685;BME280;1352;48.446;9.156;2022-10-22T12:40:54;95434.78;;;20.22;68.92
2685;BME280;1352;48.446;9.156;2022-10-22T12:43:24;95425.00;;;20.23;70.42
2685;BME280;1352;48.446;9.156;2022-10-22T12:45:53;95436.06;;;20.05;70.18
2685;BME280;1352;48.446;9.156;2022-10-22T12:48:24;95432.09;;;19.73;75.19
2685;BME280;1352;48.446;9.156;2022-10-22T12:50:54;95434.00;;;19.58;76.10
2685;BME280;1352;48.446;9.156;2022-10-22T12:53:26;95429.91;;;19.55;74.63
2685;BME280;1352;48.446;9.156;2022-10-22T12:55:55;95432.25;;;19.29;73.97
2685;BME280;1352;48.446;9.156;2022-10-22T12:58:26;95427.78;;;19.29;76.80
2685;BME280;1352;48.446;9.156;2022-10-22T13:00:58;95423.81;;;19.40;76.47
2685;BME280;1352;48.446;9.156;2022-10-22T13:03:30;95426.25;;;19.56;81.44
2685;BME280;1352;48.446;9.156;2022-10-22T13:06:11;95422.09;;;19.68;73.00
2685;BME280;1352;48.446;9.156;2022-10-22T13:08:39;95424.94;;;19.88;72.03
2685;BME280;1352;48.446;9.156;2022-10-22T13:11:08;95420.59;;;19.81;71.19
2685;BME280;1352;48.446;9.156;2022-10-22T13:13:44;95426.81;;;19.94;70.21
2685;BME280;1352;48.446;9.156;2022-10-22T13:16:16;95428.09;;;19.98;70.39
2685;BME280;1352;48.446;9.156;2022-10-22T13:18:43;95430.97;;;20.03;71.15
2685;BME280;1352;48.446;9.156;2022-10-22T13:21:22;95423.31;;;20.15;69.65
2685;BME280;1352;48.446;9.156;2022-10-22T13:23:56;95427.03;;;20.21;68.77
2685;BME280;1352;48.446;9.156;2022-10-22T13:26:29;95419.56;;;20.31;68.89
2685;BME280;1352;48.446;9.156;2022-10-22T13:28:58;95422.34;;;20.44;67.15
2685;BME280;1352;48.446;9.156;2022-10-22T13:31:29;95424.13;;;20.37;69.04